createdAt,value
2018-12-11T00:02:01.519Z,8.6
2018-12-11T00:07:01.068Z,7.5
2018-12-11T00:12:01.101Z,7.8
2018-12-11T00:17:01.100Z,7.4
2018-12-11T00:22:01.101Z,7.0
2018-12-11T00:27:06.115Z,6.6
2018-12-11T00:32:01.102Z,6.1
2018-12-11T00:37:01.100Z,5.9
2018-12-11T00:42:01.111Z,5.6
2018-12-11T00:47:06.111Z,5.4
2018-12-11T00:52:01.134Z,5.8
2018-12-11T00:57:01.111Z,6.8
2018-12-11T01:02:01.108Z,6.6
2018-12-11T01:07:01.109Z,6.3
2018-12-11T01:12:01.178Z,6.8
2018-12-11T01:17:01.115Z,6.4
2018-12-11T01:22:01.119Z,5.2
2018-12-11T01:27:01.086Z,5.0
2018-12-11T01:33:01.100Z,5.4
2018-12-11T01:38:01.102Z,4.7
2018-12-11T01:43:01.103Z,5.0
2018-12-11T01:48:01.137Z,5.5
2018-12-11T01:53:06.174Z,5.3
2018-12-11T02:03:01.186Z,5.0
2018-12-11T02:08:01.110Z,4.9
2018-12-11T02:13:01.111Z,4.6
2018-12-11T02:18:01.110Z,4.3
2018-12-11T02:28:01.117Z,4.7
2018-12-11T02:33:01.222Z,4.4
2018-12-11T02:43:01.143Z,5.0
2018-12-11T02:48:01.138Z,6.0
2018-12-11T02:53:01.117Z,7.7
2018-12-11T02:58:02.068Z,8.0
2018-12-11T03:08:06.111Z,7.6
2018-12-11T03:13:01.108Z,6.2
2018-12-11T03:18:01.107Z,4.6
2018-12-11T03:23:01.111Z,4.4
2018-12-11T03:28:01.112Z,4.3
2018-12-11T03:33:01.115Z,4.9
2018-12-11T03:38:01.121Z,5.4
2018-12-11T03:43:01.114Z,5.1
2018-12-11T03:48:01.122Z,4.8
2018-12-11T03:53:01.120Z,4.9
2018-12-11T03:58:01.115Z,4.1
2018-12-11T04:03:01.107Z,4.2
2018-12-11T04:18:01.108Z,4.0
2018-12-11T04:23:03.829Z,4.2
2018-12-11T04:28:01.103Z,3.7
2018-12-11T04:33:06.139Z,3.5
2018-12-11T04:43:01.095Z,3.4
2018-12-11T04:53:01.104Z,4.1
2018-12-11T05:08:01.091Z,4.8
2018-12-11T05:18:06.104Z,4.0
2018-12-11T05:23:01.094Z,4.2
2018-12-11T05:28:01.092Z,4.0
2018-12-11T05:33:01.097Z,3.6
2018-12-11T05:38:01.067Z,3.4
2018-12-11T05:53:01.102Z,3.5
2018-12-11T05:58:01.105Z,3.3
2018-12-11T06:03:01.107Z,3.5
2018-12-11T06:08:06.110Z,3.4
2018-12-11T06:13:01.223Z,3.2
2018-12-11T06:18:01.883Z,3.5
2018-12-11T06:23:01.114Z,3.7
2018-12-11T06:28:01.083Z,3.5
2018-12-11T06:43:01.101Z,3.8
2018-12-11T06:48:06.106Z,3.6
2018-12-11T06:58:06.122Z,3.9
2018-12-11T07:08:01.103Z,3.3
2018-12-11T07:13:01.138Z,3.5
2018-12-11T07:18:01.107Z,3.6
2018-12-11T07:23:01.101Z,3.2
2018-12-11T07:28:01.106Z,3.8
2018-12-11T07:43:01.105Z,4.0
2018-12-11T07:48:01.105Z,4.2
2018-12-11T07:53:01.109Z,3.6
2018-12-11T08:03:01.112Z,3.4
2018-12-11T08:08:01.105Z,3.2
2018-12-11T08:13:06.104Z,3.0
2018-12-11T08:28:06.174Z,3.0
2018-12-11T08:33:06.109Z,3.1
2018-12-11T08:38:01.133Z,3.3
2018-12-11T08:48:06.116Z,3.9
2018-12-11T08:53:06.117Z,4.4
2018-12-11T08:58:01.145Z,4.2
2018-12-11T09:09:01.104Z,4.3
2018-12-11T09:14:01.096Z,3.7
2018-12-11T09:19:01.068Z,3.5
2018-12-11T09:24:01.106Z,4.1
2018-12-11T09:29:01.106Z,4.0
2018-12-11T09:34:01.097Z,3.8
2018-12-11T09:39:01.109Z,4.0
2018-12-11T09:44:06.112Z,3.8
2018-12-11T09:49:06.110Z,3.4
2018-12-11T09:59:01.122Z,3.6
2018-12-11T10:04:06.108Z,3.4
2018-12-11T10:09:06.114Z,3.6
2018-12-11T10:14:06.118Z,3.2
2018-12-11T10:19:06.114Z,3.0
2018-12-11T10:29:02.215Z,3.2
2018-12-11T10:39:01.097Z,3.4
2018-12-11T10:44:01.099Z,4.5
2018-12-11T10:49:01.103Z,4.7
2018-12-11T10:54:01.104Z,4.3
2018-12-11T11:04:01.111Z,5.0
2018-12-11T11:09:01.072Z,4.6
2018-12-11T11:14:01.154Z,4.5
2018-12-11T11:19:01.104Z,5.4
2018-12-11T11:24:01.107Z,5.2
2018-12-11T11:29:01.131Z,4.2
2018-12-11T11:34:01.110Z,3.5
2018-12-11T11:44:01.109Z,3.0
2018-12-11T11:49:01.097Z,4.1
2018-12-11T11:54:01.099Z,4.4
2018-12-11T11:59:01.104Z,4.8
2018-12-11T12:14:06.213Z,3.8
2018-12-11T12:19:06.116Z,4.4
2018-12-11T12:24:06.121Z,4.8
2018-12-11T12:34:06.115Z,5.4
2018-12-11T12:39:06.116Z,5.7
2018-12-11T12:44:01.122Z,5.8
2018-12-11T12:49:06.107Z,5.5
2018-12-11T13:04:06.110Z,5.2
2018-12-11T13:09:06.103Z,4.8
2018-12-11T13:14:01.996Z,4.9
2018-12-11T13:24:01.244Z,4.1
2018-12-11T13:29:06.114Z,4.3
2018-12-11T13:39:01.110Z,4.8
2018-12-11T13:44:06.120Z,5.0
2018-12-11T13:49:01.149Z,5.7
2018-12-11T13:54:06.115Z,5.8
2018-12-11T13:59:06.119Z,6.0
2018-12-11T14:04:06.115Z,5.8
2018-12-11T14:10:01.066Z,6.0
2018-12-11T14:15:01.096Z,6.2
2018-12-11T14:20:02.067Z,6.1
2018-12-11T14:25:01.126Z,5.8
2018-12-11T14:30:01.102Z,5.6
2018-12-11T14:35:06.175Z,5.4
2018-12-11T14:40:06.124Z,5.9
2018-12-11T14:45:06.236Z,6.3
2018-12-11T14:50:06.112Z,6.2
2018-12-11T14:55:06.116Z,6.5
2018-12-11T15:00:01.113Z,6.3
2018-12-11T15:06:01.098Z,5.4
2018-12-11T15:11:01.736Z,5.2
2018-12-11T15:26:01.095Z,9.2
2018-12-11T15:31:01.091Z,9.4
2018-12-11T15:36:01.143Z,8.8
2018-12-11T15:41:01.987Z,8.4
2018-12-11T15:46:01.207Z,7.7
2018-12-11T15:51:06.114Z,3.5
2018-12-11T15:56:06.112Z,2.7
2018-12-11T16:01:06.110Z,2.9
2018-12-11T16:06:06.114Z,3.0
2018-12-11T16:11:01.145Z,3.4
2018-12-11T16:16:01.128Z,3.7
2018-12-11T16:21:06.275Z,4.0
2018-12-11T16:36:01.126Z,4.1
2018-12-11T16:51:06.113Z,4.1
2018-12-11T17:01:06.106Z,4.0
2018-12-11T17:16:01.102Z,4.1
2018-12-11T17:26:01.109Z,3.9
2018-12-11T17:36:01.094Z,3.8
2018-12-11T17:41:01.095Z,3.7
2018-12-11T17:46:01.096Z,3.6
2018-12-11T17:51:01.098Z,3.8
2018-12-11T17:56:01.101Z,4.0
2018-12-11T18:11:01.096Z,3.8
2018-12-11T18:16:01.105Z,3.9
2018-12-11T18:21:06.109Z,3.7
2018-12-11T18:31:01.106Z,3.8
2018-12-11T18:36:01.115Z,4.0
2018-12-11T18:52:01.098Z,3.7
2018-12-11T18:57:01.070Z,4.0
2018-12-11T19:02:01.096Z,4.2
2018-12-11T19:12:01.139Z,4.1
2018-12-11T19:17:01.205Z,4.3
2018-12-11T19:22:06.114Z,3.9
2018-12-11T19:27:01.137Z,4.0
2018-12-11T19:37:01.105Z,4.6
2018-12-11T19:42:01.106Z,4.4
2018-12-11T19:47:01.109Z,4.0
2018-12-11T19:52:01.108Z,3.5
2018-12-11T19:57:01.111Z,3.7
2018-12-11T20:02:01.089Z,3.3
2018-12-11T20:07:01.097Z,3.6
2018-12-11T20:12:01.102Z,4.2
2018-12-11T20:17:06.104Z,4.7
2018-12-11T20:22:01.099Z,4.5
2018-12-11T20:27:01.102Z,4.7
2018-12-11T20:32:01.102Z,5.1
2018-12-11T20:42:06.116Z,4.8
2018-12-11T20:47:02.166Z,5.0
2018-12-11T20:52:01.114Z,4.8
2018-12-11T20:57:06.110Z,4.4
2018-12-11T21:13:01.133Z,4.5
2018-12-11T21:23:01.138Z,4.2
2018-12-11T21:33:01.103Z,4.1
2018-12-11T21:38:01.104Z,3.9
2018-12-11T21:48:01.107Z,4.0
2018-12-11T21:58:01.096Z,4.3
2018-12-11T22:03:01.097Z,3.9
2018-12-11T22:08:06.109Z,3.6
2018-12-11T22:18:06.115Z,4.2
2018-12-11T22:23:01.127Z,4.0
2018-12-11T22:28:01.082Z,4.4
2018-12-11T22:33:01.107Z,4.6
2018-12-11T22:38:01.110Z,5.2
2018-12-11T22:43:01.108Z,4.6
2018-12-11T22:48:06.114Z,4.9
2018-12-11T22:58:01.092Z,4.6
2018-12-11T23:13:01.099Z,4.5
2018-12-11T23:23:01.127Z,5.2
2018-12-11T23:28:06.110Z,4.9
2018-12-11T23:38:01.138Z,4.7
2018-12-11T23:43:06.115Z,4.9
2018-12-11T23:48:06.125Z,4.2
2018-12-11T23:53:01.145Z,4.0
2018-12-11T23:58:01.131Z,4.2
